createdAt,value
2023-05-16T00:00:35.218Z,14.39
2023-05-16T00:02:52.343Z,14.37
2023-05-16T00:04:53.107Z,14.36
2023-05-16T00:07:00.895Z,14.31
2023-05-16T00:09:00.737Z,14.25
2023-05-16T00:10:59.156Z,14.23
2023-05-16T00:12:58.169Z,14.20
2023-05-16T00:14:56.576Z,14.19
2023-05-16T00:16:59.127Z,14.21
2023-05-16T00:18:58.587Z,14.17
2023-05-16T00:21:05.808Z,14.15
2023-05-16T00:23:03.558Z,14.18
2023-05-16T00:25:03.067Z,14.23
2023-05-16T00:27:00.245Z,14.24
2023-05-16T00:28:58.717Z,14.18
2023-05-16T00:30:57.871Z,14.08
2023-05-16T00:32:56.583Z,14.03
2023-05-16T00:34:57.708Z,13.99
2023-05-16T00:58:19.127Z,13.64
2023-05-16T03:05:35.441Z,11.92
2023-05-16T03:07:46.622Z,11.86
2023-05-16T03:13:33.776Z,11.73
2023-05-16T03:16:40.920Z,11.64
2023-05-16T03:19:16.130Z,11.54
2023-05-16T03:22:05.549Z,11.50
2023-05-16T03:24:23.344Z,11.44
2023-05-16T03:26:39.762Z,11.57
2023-05-16T03:29:03.866Z,11.56
2023-05-16T03:31:44.850Z,11.58
2023-05-16T03:44:58.453Z,11.17
2023-05-16T03:47:02.771Z,11.17
2023-05-16T04:01:21.704Z,11.19
2023-05-16T04:03:31.765Z,11.03
2023-05-16T04:05:41.534Z,10.89
2023-05-16T04:08:01.338Z,10.94
2023-05-16T04:10:14.556Z,11.01
2023-05-16T04:12:10.663Z,11.11
2023-05-16T04:14:06.312Z,11.20
2023-05-16T04:16:01.424Z,11.23
2023-05-16T04:17:59.405Z,11.27
2023-05-16T04:19:54.578Z,11.34
2023-05-16T04:21:50.818Z,11.27
2023-05-16T04:23:45.837Z,11.14
2023-05-16T04:25:41.502Z,10.99
2023-05-16T04:27:36.858Z,10.93
2023-05-16T04:29:32.418Z,10.98
2023-05-16T04:31:28.690Z,10.92
2023-05-16T04:33:26.676Z,10.97
2023-05-16T04:35:22.095Z,11.02
2023-05-16T04:37:17.576Z,11.05
2023-05-16T04:39:12.701Z,10.97
2023-05-16T04:41:08.055Z,10.92
2023-05-16T04:43:03.098Z,10.85
2023-05-16T04:44:58.730Z,10.84
2023-05-16T04:46:53.729Z,10.66
2023-05-16T04:48:52.262Z,10.64
2023-05-16T04:50:47.321Z,10.60
2023-05-16T04:52:42.673Z,10.64
2023-05-16T04:54:37.702Z,10.62
2023-05-16T04:56:33.039Z,10.60
2023-05-16T04:58:28.174Z,10.41
2023-05-16T05:00:24.145Z,10.45
2023-05-16T05:02:19.187Z,10.45
2023-05-16T05:04:17.872Z,10.50
2023-05-16T05:06:12.913Z,10.51
2023-05-16T05:08:08.696Z,10.58
2023-05-16T05:10:03.914Z,10.55
2023-05-16T05:11:59.222Z,10.48
2023-05-16T05:13:54.297Z,10.43
2023-05-16T05:15:50.516Z,10.45
2023-05-16T05:17:45.784Z,10.35
2023-05-16T05:19:43.952Z,10.36
2023-05-16T05:21:39.600Z,10.47
2023-05-16T05:23:35.318Z,10.54
2023-05-16T05:25:30.638Z,10.54
2023-05-16T05:47:24.867Z,10.20
2023-05-16T05:49:20.731Z,10.28
2023-05-16T05:51:18.684Z,10.31
2023-05-16T05:53:14.356Z,10.33
2023-05-16T05:55:10.443Z,10.35
2023-05-16T05:57:05.869Z,10.42
2023-05-16T05:59:01.242Z,10.41
2023-05-16T06:00:56.614Z,10.38
2023-05-16T06:02:51.996Z,10.49
2023-05-16T06:04:47.960Z,10.46
2023-05-16T06:06:45.726Z,10.47
2023-05-16T06:08:41.223Z,10.52
2023-05-16T06:10:36.409Z,10.63
2023-05-16T06:12:32.134Z,10.69
2023-05-16T06:14:27.240Z,10.72
2023-05-16T06:16:22.837Z,10.73
2023-05-16T06:18:17.932Z,10.78
2023-05-16T06:20:14.509Z,10.69
2023-05-16T06:22:12.212Z,10.72
2023-05-16T06:24:07.993Z,10.79
2023-05-16T06:26:03.115Z,10.82
2023-05-16T06:27:58.465Z,10.82
2023-05-16T06:29:53.546Z,10.75
2023-05-16T06:31:49.906Z,10.71
2023-05-16T06:33:45.060Z,10.64
2023-05-16T06:35:40.828Z,10.73
2023-05-16T06:37:39.180Z,10.72
2023-05-16T06:39:35.402Z,10.70
2023-05-16T06:41:30.521Z,10.67
2023-05-16T06:43:25.898Z,10.61
2023-05-16T06:45:20.943Z,10.58
2023-05-16T06:47:16.448Z,10.51
2023-05-16T06:49:11.522Z,10.62
2023-05-16T06:51:07.350Z,10.68
2023-05-16T06:53:06.894Z,10.73
2023-05-16T06:55:02.255Z,10.76
2023-05-16T06:56:57.321Z,10.71
2023-05-16T06:58:52.861Z,10.66
2023-05-16T07:00:47.973Z,10.78
2023-05-16T07:02:43.547Z,10.86
2023-05-16T07:04:39.593Z,10.85
2023-05-16T07:06:35.092Z,10.83
2023-05-16T07:08:33.184Z,10.80
2023-05-16T07:10:28.633Z,10.77
2023-05-16T07:12:23.774Z,10.68
2023-05-16T07:14:19.210Z,10.59
2023-05-16T07:16:14.392Z,10.59
2023-05-16T07:18:09.834Z,10.57
2023-05-16T07:20:05.557Z,10.62
2023-05-16T07:22:01.092Z,10.74
2023-05-16T07:23:58.815Z,10.76
2023-05-16T07:25:54.264Z,10.84
2023-05-16T07:27:49.306Z,10.86
2023-05-16T07:29:44.704Z,10.84
2023-05-16T07:31:39.816Z,10.77
2023-05-16T07:33:35.248Z,10.88
2023-05-16T07:35:30.491Z,10.81
2023-05-16T07:37:26.201Z,10.85
2023-05-16T07:39:23.810Z,10.82
2023-05-16T07:41:19.209Z,10.89
2023-05-16T07:43:14.379Z,11.08
2023-05-16T07:45:10.761Z,11.10
2023-05-16T07:47:06.678Z,11.12
2023-05-16T07:49:02.158Z,11.24
2023-05-16T07:50:57.952Z,11.14
2023-05-16T07:52:53.355Z,11.16
2023-05-16T07:54:51.151Z,11.28
2023-05-16T07:56:47.000Z,11.12
2023-05-16T07:58:43.026Z,11.01
2023-05-16T08:00:38.856Z,11.03
2023-05-16T08:02:34.432Z,10.99
2023-05-16T08:04:30.062Z,11.06
2023-05-16T08:06:25.583Z,11.04
2023-05-16T08:08:21.055Z,11.08
2023-05-16T08:10:19.232Z,11.24
2023-05-16T08:12:16.384Z,11.33
2023-05-16T08:14:11.605Z,11.34
2023-05-16T08:16:07.658Z,11.32
2023-05-16T08:18:02.760Z,11.30
2023-05-16T08:19:59.364Z,11.31
2023-05-16T08:21:55.126Z,11.36
2023-05-16T08:23:50.891Z,11.41
2023-05-16T08:25:48.565Z,11.33
2023-05-16T08:27:45.540Z,11.19
2023-05-16T08:29:40.532Z,11.11
2023-05-16T08:31:35.987Z,11.15
2023-05-16T08:33:31.098Z,11.05
2023-05-16T08:35:26.618Z,11.03
2023-05-16T08:37:21.925Z,10.98
2023-05-16T08:39:17.351Z,11.11
2023-05-16T08:41:15.069Z,11.17
2023-05-16T08:43:10.478Z,11.24
2023-05-16T08:45:06.648Z,11.19
2023-05-16T08:47:12.105Z,11.17
2023-05-16T08:49:08.612Z,11.09
2023-05-16T08:51:05.590Z,11.12
2023-05-16T08:53:01.986Z,11.03
2023-05-16T08:55:10.285Z,10.95
2023-05-16T08:57:09.615Z,11.04
2023-05-16T08:59:05.605Z,11.06
2023-05-16T09:01:03.634Z,11.20
2023-05-16T09:02:59.456Z,11.32
2023-05-16T09:04:55.569Z,11.32
2023-05-16T09:06:51.222Z,11.33
2023-05-16T09:08:46.816Z,11.41
2023-05-16T09:10:42.181Z,11.37
2023-05-16T09:12:40.192Z,11.29
2023-05-16T09:14:36.237Z,11.21
2023-05-16T09:16:31.477Z,11.28
2023-05-16T09:18:26.973Z,11.31
2023-05-16T09:20:26.093Z,11.26
2023-05-16T09:22:21.674Z,11.30
2023-05-16T09:24:16.938Z,11.23
2023-05-16T09:26:12.309Z,11.26
2023-05-16T09:28:15.465Z,11.26
2023-05-16T09:30:12.702Z,11.25
2023-05-16T09:32:12.006Z,11.28
2023-05-16T09:34:11.431Z,11.31
2023-05-16T09:36:06.927Z,11.25
2023-05-16T09:38:02.344Z,11.28
2023-05-16T09:39:57.759Z,11.36
2023-05-16T09:41:55.276Z,11.36
2023-05-16T09:43:53.005Z,11.45
2023-05-16T09:45:50.921Z,11.50
2023-05-16T09:47:48.735Z,11.49
2023-05-16T09:49:44.319Z,11.43
2023-05-16T09:51:39.558Z,11.30
2023-05-16T09:53:36.286Z,11.26
2023-05-16T09:55:32.114Z,11.39
2023-05-16T09:57:28.420Z,11.24
2023-05-16T09:59:26.067Z,11.26
2023-05-16T10:01:22.180Z,11.29
2023-05-16T10:03:18.711Z,11.31
2023-05-16T10:05:15.102Z,11.34
2023-05-16T10:07:11.414Z,11.30
2023-05-16T10:09:08.173Z,11.34
2023-05-16T10:11:03.907Z,11.36
2023-05-16T10:13:02.635Z,11.37
2023-05-16T10:15:00.965Z,11.50
2023-05-16T10:16:57.537Z,11.58
2023-05-16T10:18:55.201Z,11.69
2023-05-16T10:20:54.641Z,11.67
2023-05-16T10:22:52.538Z,11.73
2023-05-16T10:24:55.017Z,11.76
2023-05-16T10:26:51.261Z,11.65
2023-05-16T10:28:47.305Z,11.61
2023-05-16T10:30:47.541Z,11.57
2023-05-16T10:32:43.926Z,11.52
2023-05-16T10:34:39.799Z,11.53
2023-05-16T10:36:35.868Z,11.62
2023-05-16T10:38:31.858Z,11.56
2023-05-16T10:40:28.413Z,11.49
2023-05-16T10:42:24.300Z,11.51
2023-05-16T10:44:20.343Z,11.65
2023-05-16T10:46:18.276Z,11.78
2023-05-16T10:48:15.664Z,11.92
2023-05-16T10:50:11.442Z,11.99
2023-05-16T10:52:19.879Z,12.06
2023-05-16T10:55:10.465Z,12.26
2023-05-16T10:57:24.544Z,12.34
2023-05-16T10:59:37.820Z,12.24
2023-05-16T11:01:45.443Z,12.22
2023-05-16T11:03:41.186Z,12.19
2023-05-16T11:05:41.906Z,12.12
2023-05-16T11:07:42.768Z,12.15
2023-05-16T11:09:40.723Z,12.06
2023-05-16T11:11:49.704Z,11.75
2023-05-16T11:13:59.178Z,11.55
2023-05-16T11:15:55.354Z,11.64
2023-05-16T11:17:53.853Z,11.76
2023-05-16T11:19:54.328Z,11.79
2023-05-16T11:22:16.487Z,11.80
2023-05-16T11:24:39.764Z,11.94
2023-05-16T11:26:38.669Z,12.04
2023-05-16T11:28:37.461Z,12.17
2023-05-16T11:30:35.107Z,12.21
2023-05-16T11:32:37.489Z,12.08
2023-05-16T11:34:40.996Z,12.17
2023-05-16T11:36:38.880Z,12.11
2023-05-16T11:38:37.663Z,12.05
2023-05-16T11:40:40.249Z,12.04
2023-05-16T11:42:39.521Z,11.99
2023-05-16T11:44:35.460Z,12.03
2023-05-16T11:46:33.105Z,12.12
2023-05-16T11:48:36.156Z,12.02
2023-05-16T11:50:41.330Z,12.17
2023-05-16T11:52:37.684Z,12.13
2023-05-16T11:54:43.158Z,12.08
2023-05-16T11:56:43.140Z,12.08
2023-05-16T11:58:42.534Z,12.02
2023-05-16T12:00:39.491Z,12.09
2023-05-16T12:02:35.447Z,12.21
2023-05-16T12:04:31.829Z,12.12
2023-05-16T12:06:34.642Z,12.13
2023-05-16T12:08:30.903Z,12.22
2023-05-16T12:10:33.267Z,12.38
2023-05-16T12:12:34.411Z,12.59
2023-05-16T12:14:31.603Z,12.88
2023-05-16T12:16:27.863Z,13.00
2023-05-16T12:18:27.802Z,13.05
2023-05-16T12:20:29.436Z,13.05
2023-05-16T12:22:31.862Z,12.89
2023-05-16T12:24:35.212Z,12.90
2023-05-16T12:26:36.208Z,12.92
2023-05-16T12:28:38.612Z,12.84
2023-05-16T12:30:42.979Z,12.80
2023-05-16T12:33:17.661Z,12.88
2023-05-16T12:35:22.866Z,12.78
2023-05-16T12:37:37.303Z,12.62
2023-05-16T12:40:17.437Z,12.64
2023-05-16T12:42:14.811Z,12.63
2023-05-16T12:44:14.631Z,12.64
2023-05-16T12:46:14.853Z,12.71
2023-05-16T12:48:20.385Z,12.80
2023-05-16T12:50:23.322Z,12.72
2023-05-16T12:52:24.736Z,12.87
2023-05-16T12:54:24.222Z,13.08
2023-05-16T12:56:25.527Z,13.19
2023-05-16T12:58:23.623Z,13.21
2023-05-16T13:00:23.219Z,13.24
2023-05-16T13:02:22.752Z,13.40
2023-05-16T13:04:20.292Z,13.53
2023-05-16T13:06:17.521Z,13.32
2023-05-16T13:08:12.781Z,13.39
2023-05-16T13:10:14.815Z,13.44
2023-05-16T13:12:10.223Z,13.44
2023-05-16T13:14:06.245Z,13.80
2023-05-16T13:16:03.342Z,14.22
2023-05-16T13:18:06.755Z,14.62
2023-05-16T13:20:10.584Z,14.74
2023-05-16T13:22:09.584Z,14.59
2023-05-16T13:24:09.120Z,14.42
2023-05-16T13:26:12.825Z,14.40
2023-05-16T13:28:08.536Z,14.51
2023-05-16T13:30:04.536Z,14.54
2023-05-16T13:32:06.261Z,14.62
2023-05-16T13:34:07.177Z,14.65
2023-05-16T13:36:02.529Z,14.84
2023-05-16T13:37:57.976Z,14.91
2023-05-16T13:39:54.941Z,14.95
2023-05-16T13:42:15.304Z,15.03
2023-05-16T13:44:18.859Z,15.14
2023-05-16T13:46:16.880Z,15.16
2023-05-16T13:48:12.366Z,15.19
2023-05-16T13:50:10.387Z,15.32
2023-05-16T13:52:05.937Z,15.30
2023-05-16T13:54:01.620Z,15.31
2023-05-16T13:55:59.528Z,15.33
2023-05-16T13:57:57.665Z,15.33
2023-05-16T14:01:57.068Z,15.35
2023-05-16T14:03:54.766Z,15.10
2023-05-16T14:05:52.016Z,15.22
2023-05-16T14:07:48.725Z,15.04
2023-05-16T14:09:45.413Z,15.10
2023-05-16T14:11:40.538Z,15.32
2023-05-16T14:13:43.581Z,15.42
2023-05-16T14:15:39.135Z,15.53
2023-05-16T14:17:34.822Z,15.57
2023-05-16T14:19:30.333Z,15.63
2023-05-16T14:21:26.800Z,15.57
2023-05-16T14:23:21.870Z,15.29
2023-05-16T14:25:19.559Z,15.16
2023-05-16T14:27:15.380Z,15.35
2023-05-16T14:29:30.468Z,15.62
2023-05-16T14:31:30.955Z,15.66
2023-05-16T14:33:27.034Z,15.30
2023-05-16T14:35:22.867Z,15.08
2023-05-16T14:37:20.456Z,15.05
2023-05-16T14:39:16.370Z,15.14
2023-05-16T14:41:22.811Z,14.99
2023-05-16T14:43:18.744Z,14.95
2023-05-16T14:45:17.705Z,15.08
2023-05-16T14:47:13.905Z,15.14
2023-05-16T14:49:09.762Z,15.33
2023-05-16T14:51:05.573Z,15.48
2023-05-16T14:53:01.200Z,15.32
2023-05-16T14:54:56.304Z,15.41
2023-05-16T14:56:51.811Z,15.50
2023-05-16T14:58:47.081Z,15.76
2023-05-16T15:00:45.293Z,15.60
2023-05-16T15:02:45.260Z,15.67
2023-05-16T15:04:42.267Z,15.69
2023-05-16T15:06:44.979Z,15.72
2023-05-16T15:08:54.472Z,15.69
2023-05-16T15:11:16.709Z,15.66
2023-05-16T15:13:29.672Z,15.77
2023-05-16T15:15:40.214Z,16.03
2023-05-16T15:17:48.561Z,16.19
2023-05-16T15:20:05.883Z,16.56
2023-05-16T15:22:19.709Z,16.77
2023-05-16T15:24:21.195Z,16.59
2023-05-16T15:26:23.807Z,16.54
2023-05-16T15:28:25.870Z,16.37
2023-05-16T15:30:34.018Z,16.16
2023-05-16T15:32:30.292Z,16.04
2023-05-16T15:34:30.345Z,15.72
2023-05-16T15:36:28.899Z,15.78
2023-05-16T15:38:24.895Z,15.84
2023-05-16T15:40:27.320Z,16.14
2023-05-16T15:42:27.343Z,16.08
2023-05-16T15:44:24.346Z,16.07
2023-05-16T15:46:20.199Z,15.87
2023-05-16T15:48:17.378Z,15.82
2023-05-16T15:50:17.434Z,15.71
2023-05-16T15:52:12.952Z,15.62
2023-05-16T15:54:12.737Z,15.67
2023-05-16T15:56:11.073Z,15.88
2023-05-16T15:58:07.276Z,15.95
2023-05-16T16:00:02.773Z,16.14
2023-05-16T16:01:58.468Z,16.20
2023-05-16T16:03:54.092Z,16.20
2023-05-16T16:06:11.536Z,16.29
2023-05-16T16:08:14.869Z,16.18
2023-05-16T16:10:27.745Z,16.29
2023-05-16T16:12:37.291Z,16.20
2023-05-16T16:14:36.589Z,16.15
2023-05-16T16:16:36.821Z,16.23
2023-05-16T16:18:39.744Z,16.10
2023-05-16T16:20:36.099Z,16.09
2023-05-16T16:22:35.971Z,16.17
2023-05-16T16:24:31.562Z,16.21
2023-05-16T16:26:31.917Z,16.31
2023-05-16T16:28:27.222Z,16.44
2023-05-16T16:30:22.657Z,16.49
2023-05-16T16:32:17.818Z,16.41
2023-05-16T16:34:15.030Z,16.36
2023-05-16T16:36:11.594Z,16.14
2023-05-16T16:38:23.964Z,15.88
2023-05-16T16:40:25.939Z,15.86
2023-05-16T16:42:31.651Z,15.95
2023-05-16T16:44:28.660Z,16.26
2023-05-16T16:46:25.549Z,16.34
2023-05-16T16:48:20.974Z,16.49
2023-05-16T16:50:22.227Z,16.60
2023-05-16T16:52:27.613Z,16.59
2023-05-16T16:54:26.234Z,16.45
2023-05-16T16:56:26.664Z,16.24
2023-05-16T16:58:24.199Z,16.25
2023-05-16T17:00:24.391Z,16.15
2023-05-16T17:02:27.607Z,16.00
2023-05-16T17:04:27.643Z,16.12
2023-05-16T17:06:23.495Z,16.09
2023-05-16T17:08:18.585Z,16.11
2023-05-16T17:10:16.934Z,16.18
2023-05-16T17:12:19.021Z,15.98
2023-05-16T17:14:16.538Z,16.07
2023-05-16T17:16:22.784Z,16.17
2023-05-16T17:18:19.754Z,16.15
2023-05-16T17:20:16.208Z,16.19
2023-05-16T17:22:11.951Z,16.31
2023-05-16T17:24:07.563Z,16.38
2023-05-16T17:26:05.540Z,16.21
2023-05-16T17:30:27.028Z,15.78
2023-05-16T17:32:22.142Z,15.73
2023-05-16T17:34:17.738Z,15.53
2023-05-16T17:36:14.486Z,15.48
2023-05-16T17:38:11.511Z,15.59
2023-05-16T17:40:19.847Z,15.52
2023-05-16T17:42:18.271Z,15.60
2023-05-16T17:44:13.322Z,15.63
2023-05-16T17:46:09.027Z,15.58
2023-05-16T17:48:04.363Z,15.36
2023-05-16T17:49:59.924Z,15.28
2023-05-16T17:51:56.676Z,15.32
2023-05-16T17:53:52.671Z,15.23
2023-05-16T17:55:47.866Z,15.20
2023-05-16T17:57:46.825Z,15.25
2023-05-16T17:59:41.970Z,15.19
2023-05-16T18:01:37.402Z,15.06
2023-05-16T18:03:32.497Z,14.98
2023-05-16T18:05:28.894Z,14.92
2023-05-16T18:07:24.392Z,14.91
2023-05-16T18:09:20.828Z,14.83
2023-05-16T18:11:15.981Z,14.74
2023-05-16T18:13:14.089Z,14.79
2023-05-16T18:15:12.717Z,14.81
2023-05-16T18:17:09.145Z,14.76
2023-05-16T18:19:05.654Z,14.72
2023-05-16T18:21:01.337Z,14.77
2023-05-16T18:22:56.807Z,14.72
2023-05-16T18:24:52.251Z,14.81
2023-05-16T18:26:48.512Z,14.70
2023-05-16T18:28:51.418Z,14.49
2023-05-16T18:30:47.755Z,14.32
2023-05-16T18:32:43.436Z,14.40
2023-05-16T18:34:38.559Z,14.45
2023-05-16T18:36:34.310Z,14.35
2023-05-16T18:38:33.269Z,14.29
2023-05-16T18:40:29.246Z,14.27
2023-05-16T18:42:25.798Z,14.25
2023-05-16T18:44:23.775Z,14.21
2023-05-16T18:46:18.983Z,14.17
2023-05-16T18:48:14.489Z,14.29
2023-05-16T18:50:11.234Z,14.33
2023-05-16T18:52:07.477Z,14.37
2023-05-16T18:54:04.112Z,14.41
2023-05-16T18:55:59.603Z,14.31
2023-05-16T18:57:55.026Z,14.22
2023-05-16T18:59:53.720Z,14.20
2023-05-16T19:01:49.209Z,14.17
2023-05-16T19:03:44.905Z,14.06
2023-05-16T19:05:40.625Z,14.02
2023-05-16T19:07:36.843Z,13.98
2023-05-16T19:09:32.843Z,13.98
2023-05-16T19:11:28.570Z,13.93
2023-05-16T19:13:23.916Z,13.88
2023-05-16T19:15:22.288Z,13.74
2023-05-16T19:17:17.759Z,13.77
2023-05-16T19:19:13.685Z,13.64
2023-05-16T19:21:13.491Z,13.56
2023-05-16T19:23:09.786Z,13.49
2023-05-16T19:25:05.737Z,13.51
2023-05-16T19:27:02.478Z,13.49
2023-05-16T19:28:58.695Z,13.46
2023-05-16T19:30:57.885Z,13.52
2023-05-16T19:33:00.613Z,13.55
2023-05-16T19:34:56.966Z,13.50
2023-05-16T19:36:54.494Z,13.48
2023-05-16T19:38:50.759Z,13.45
2023-05-16T19:40:47.768Z,13.39
2023-05-16T19:42:44.474Z,13.35
2023-05-16T19:44:39.961Z,13.30
2023-05-16T19:46:39.379Z,13.29
2023-05-16T19:48:53.006Z,13.24
2023-05-16T19:50:50.277Z,13.23
2023-05-16T19:52:45.802Z,13.17
2023-05-16T19:54:41.470Z,13.01
2023-05-16T19:56:36.601Z,13.03
2023-05-16T19:58:32.360Z,13.03
2023-05-16T20:00:28.104Z,12.97
2023-05-16T20:02:26.829Z,12.92
2023-05-16T20:04:22.877Z,12.80
2023-05-16T20:06:18.872Z,12.66
2023-05-16T20:08:23.051Z,12.49
2023-05-16T20:10:24.674Z,12.41
2023-05-16T20:12:21.266Z,12.32
2023-05-16T20:14:20.100Z,12.33
2023-05-16T20:16:20.816Z,12.39
2023-05-16T20:18:22.477Z,12.37
2023-05-16T20:20:17.726Z,12.26
2023-05-16T20:22:15.073Z,12.28
2023-05-16T20:24:10.947Z,12.22
2023-05-16T20:26:09.556Z,12.04
2023-05-16T20:28:04.926Z,11.95
2023-05-16T20:30:00.893Z,11.92
2023-05-16T20:32:00.451Z,11.88
2023-05-16T20:34:03.133Z,11.88
2023-05-16T20:36:06.008Z,11.76
2023-05-16T20:38:01.587Z,11.76
2023-05-16T20:39:56.889Z,11.76
2023-05-16T20:41:52.766Z,11.77
2023-05-16T20:43:50.738Z,11.78
2023-05-16T20:45:47.879Z,11.72
2023-05-16T20:47:43.405Z,11.70
2023-05-16T20:49:42.553Z,11.74
2023-05-16T20:51:37.787Z,11.74
2023-05-16T20:53:33.422Z,11.75
2023-05-16T20:55:29.129Z,11.70
2023-05-16T20:57:24.783Z,11.65
2023-05-16T20:59:19.959Z,11.70
2023-05-16T21:01:15.389Z,11.73
2023-05-16T21:03:12.545Z,11.69
2023-05-16T21:05:23.907Z,11.71
2023-05-16T21:07:21.740Z,11.78
2023-05-16T21:09:17.909Z,11.78
2023-05-16T21:11:14.184Z,11.79
2023-05-16T21:13:13.771Z,11.79
2023-05-16T21:15:10.533Z,11.82
2023-05-16T21:17:06.436Z,11.78
2023-05-16T21:19:04.332Z,11.78
2023-05-16T21:21:02.640Z,11.76
2023-05-16T21:22:57.766Z,11.73
2023-05-16T21:24:53.139Z,11.63
2023-05-16T21:26:48.124Z,11.56
2023-05-16T21:28:54.375Z,11.56
2023-05-16T21:30:50.398Z,11.51
2023-05-16T21:32:46.288Z,11.48
2023-05-16T21:34:41.652Z,11.51
2023-05-16T21:36:40.146Z,11.43
2023-05-16T21:38:35.499Z,11.38
2023-05-16T21:40:31.176Z,11.29
2023-05-16T21:42:26.564Z,11.22
2023-05-16T21:44:22.897Z,11.16
2023-05-16T21:46:18.171Z,11.08
2023-05-16T21:48:13.684Z,11.05
2023-05-16T21:50:10.569Z,11.08
2023-05-16T21:52:09.081Z,11.04
2023-05-16T21:54:04.950Z,11.00
2023-05-16T21:56:00.332Z,10.98
2023-05-16T21:57:55.402Z,11.02
2023-05-16T21:59:51.920Z,11.00
2023-05-16T22:01:46.969Z,10.86
2023-05-16T22:03:42.536Z,10.79
2023-05-16T22:05:37.715Z,10.81
2023-05-16T22:07:35.752Z,10.84
2023-05-16T22:09:30.846Z,10.83
2023-05-16T22:11:26.436Z,10.84
2023-05-16T22:13:21.462Z,10.75
2023-05-16T22:15:16.920Z,10.72
2023-05-16T22:17:12.008Z,10.73
2023-05-16T22:19:07.860Z,10.69
2023-05-16T22:21:02.965Z,10.69
2023-05-16T22:23:00.908Z,10.63
2023-05-16T22:24:55.920Z,10.62
2023-05-16T22:26:51.305Z,10.66
2023-05-16T22:28:46.278Z,10.54
2023-05-16T22:30:41.635Z,10.57
2023-05-16T22:32:36.764Z,10.52
2023-05-16T22:34:32.273Z,10.50
2023-05-16T22:36:27.430Z,10.43
2023-05-16T22:38:25.382Z,10.40
2023-05-16T22:40:21.231Z,10.39
2023-05-16T22:42:16.564Z,10.39
2023-05-16T22:44:11.587Z,10.38
2023-05-16T22:46:07.017Z,10.40
2023-05-16T22:48:02.135Z,10.43
2023-05-16T22:49:57.622Z,10.38
2023-05-16T22:51:52.696Z,10.32
2023-05-16T22:53:50.662Z,10.31
2023-05-16T22:55:46.443Z,10.30
2023-05-16T22:57:41.841Z,10.26
2023-05-16T22:59:36.991Z,10.24
2023-05-16T23:01:32.413Z,10.24
2023-05-16T23:03:28.066Z,10.27
2023-05-16T23:05:23.803Z,10.23
2023-05-16T23:07:18.836Z,10.13
2023-05-16T23:09:16.771Z,10.12
2023-05-16T23:11:11.885Z,10.04
2023-05-16T23:13:07.355Z,9.97
2023-05-16T23:15:02.489Z,10.01
2023-05-16T23:16:57.976Z,10.02
2023-05-16T23:18:53.173Z,9.97
2023-05-16T23:20:48.684Z,10.01
2023-05-16T23:22:43.787Z,10.03
2023-05-16T23:24:41.784Z,9.93
2023-05-16T23:26:36.836Z,9.94
2023-05-16T23:28:32.208Z,9.93
2023-05-16T23:30:27.351Z,9.88
2023-05-16T23:32:22.795Z,9.88
2023-05-16T23:34:17.946Z,9.84
2023-05-16T23:36:13.538Z,9.73
2023-05-16T23:38:08.704Z,9.72
2023-05-16T23:40:07.378Z,9.75
2023-05-16T23:42:03.095Z,9.75
2023-05-16T23:43:58.419Z,9.68
2023-05-16T23:45:53.743Z,9.67
2023-05-16T23:47:49.563Z,9.57
2023-05-16T23:49:44.918Z,9.43
2023-05-16T23:51:56.206Z,9.45
2023-05-16T23:53:53.071Z,9.46
2023-05-16T23:55:51.348Z,9.50
2023-05-16T23:57:46.639Z,9.48
2023-05-16T23:59:42.510Z,9.45
